Pagrindinis puslapis
METAR-TAF:

METAR-TAF

Oro uostai :

Ivalo, Suomija

platuma: 68-37N, ilguma: 027-25E, Aukštis: 147 m

Dabartinis oras

Ataskaita buvo paskelbta 29 minutes, ne 02:50 UTC
Vėjas 2 kt iš Vakarų/Pietvakarių
Temperatūra -14°C
Drėgmė 85%
Slėgis 1021 hPa
Matomumas 10 km arba daugiau
nėra debesų žemiau 1500 m ir nėra kamuolinių lietaus debesų

METAR: EFIV 190250Z AUTO 25002KT CAVOK M14/M16 Q1021

Laikas: 06:19 (03:19 UTC)

Prognozė

Ataskaita buvo paskelbta 12 valandos ir 58 minutes, ne 14:21 UTC
Prognozė galioja nuo 18 metu 15 UTC su 18 metu 18 UTC
Vėjas 5 kt iš Pietryčių
Matomumas 10 km arba daugiau
nėra debesų žemiau 1500 m ir nėra kamuolinių lietaus debesų

TAF: EFIV 181421Z 1815/1818 13005KT CAVOK

Orai ataskaitas ir orų prognozės (METAR, TAF).

turimą stotys yra geltonos ir raudonos taškus žemėlapyje.

Perkelti pele per norėdami pamatyti stoties vardą.

Tada spustelėkite, norėdami matyti oro stebėjimo ir prognozės.

Norėdami pakeisti žemėlapį: spustelėkite ant žalios mygtukų su juodo kryžiaus žemyn,; žalią mygtuką su brūkšneliu, jei norite nutolinti; arba žalių rodyklių gretimoms žemėlapius.


METAR-TAF: